Pagrindinis puslapis
METAR-TAF:

METAR-TAF

Oro uostai :

Fortaleza, Ceará, Brazilija

platuma: 03-47S, ilguma: 038-32W, Aukštis: 25 m

Dabartinis oras

Ataskaita buvo paskelbta 1 valandą ir 5 minutes, ne 19:00 UTC
Vėjas 15 kt iš Rytų
Temperatūra 28°C
Drėgmė 62%
Slėgis 1010 hPa
Matomumas 10 km arba daugiau
nėra debesų žemiau 1500 m ir nėra kamuolinių lietaus debesų

METAR: SBFZ 141900Z 08015KT CAVOK 28/20 Q1010

Laikas: 17:05 (20:05 UTC)

Prognozė

Ataskaita buvo paskelbta 5 valandos ir 5 minutes, ne 15:00 UTC
Prognozė galioja nuo 14 metu 18 UTC su 15 metu 18 UTC
Vėjas 10 kt iš Rytų/Pietryčių
Matomumas: 8000 m
Mažai debesys ne aukštis 2000 ft

TAF: SBFZ 141500Z 1418/1518 12010KT 8000 FEW020 TX28/1418Z TN20/1508Z RMK PDE

Orai ataskaitas ir orų prognozės (METAR, TAF).

turimą stotys yra geltonos ir raudonos taškus žemėlapyje.

Perkelti pele per norėdami pamatyti stoties vardą.

Tada spustelėkite, norėdami matyti oro stebėjimo ir prognozės.

Norėdami pakeisti žemėlapį: spustelėkite ant žalios mygtukų su juodo kryžiaus žemyn,; žalią mygtuką su brūkšneliu, jei norite nutolinti; arba žalių rodyklių gretimoms žemėlapius.


METAR-TAF: